createdAt,value
2018-03-31T00:00:24.924Z,90.60
2018-03-31T00:01:25.028Z,79.20
2018-03-31T00:02:24.875Z,71.40
2018-03-31T00:03:24.849Z,84.80
2018-03-31T00:04:24.826Z,88.90
2018-03-31T00:05:24.811Z,80.60
2018-03-31T00:06:24.775Z,66.30
2018-03-31T00:07:24.750Z,67.40
2018-03-31T00:08:24.732Z,72.50
2018-03-31T00:09:24.699Z,72.20
2018-03-31T00:10:24.695Z,69.20
2018-03-31T00:11:24.662Z,76.30
2018-03-31T00:12:24.650Z,72.00
2018-03-31T00:13:24.606Z,71.90
2018-03-31T00:14:24.589Z,74.10
2018-03-31T00:15:24.565Z,72.80
2018-03-31T00:16:24.544Z,74.50
2018-03-31T00:17:24.510Z,67.50
2018-03-31T00:18:24.547Z,77.50
2018-03-31T00:19:24.461Z,84.30
2018-03-31T00:20:24.460Z,84.30
2018-03-31T00:21:24.499Z,72.40
2018-03-31T00:22:24.414Z,71.40
2018-03-31T00:23:24.371Z,72.70
2018-03-31T00:24:24.348Z,75.10
2018-03-31T00:25:24.318Z,71.90
2018-03-31T00:26:24.301Z,69.50
2018-03-31T00:27:24.270Z,73.10
2018-03-31T00:28:24.307Z,76.20
2018-03-31T00:29:24.248Z,63.90
2018-03-31T00:30:24.203Z,77.90
2018-03-31T00:31:24.173Z,83.70
2018-03-31T00:32:24.191Z,68.00
2018-03-31T00:33:24.122Z,71.90
2018-03-31T00:34:24.103Z,66.30
2018-03-31T00:35:24.073Z,71.00
2018-03-31T00:36:24.051Z,71.10
2018-03-31T00:37:24.026Z,72.40
2018-03-31T00:38:24.007Z,77.70
2018-03-31T00:39:24.036Z,75.20
2018-03-31T00:40:23.959Z,80.30
2018-03-31T00:41:23.940Z,83.50
2018-03-31T00:42:23.910Z,79.80
2018-03-31T00:43:23.880Z,86.10
2018-03-31T00:44:23.864Z,80.70
2018-03-31T00:45:23.841Z,82.10
2018-03-31T00:46:23.815Z,87.60
2018-03-31T00:47:23.787Z,85.60
2018-03-31T00:48:23.771Z,74.00
2018-03-31T00:49:23.740Z,82.70
2018-03-31T00:50:23.747Z,74.80
2018-03-31T00:51:23.701Z,77.00
2018-03-31T00:52:23.678Z,76.10
2018-03-31T00:53:23.639Z,80.90
2018-03-31T00:54:23.706Z,77.00
2018-03-31T00:55:23.630Z,82.40
2018-03-31T00:56:23.593Z,86.10
2018-03-31T00:57:23.547Z,77.90
2018-03-31T00:58:23.556Z,93.30
2018-03-31T00:59:23.506Z,89.30
2018-03-31T01:00:23.482Z,78.50
2018-03-31T01:01:23.468Z,76.20
2018-03-31T01:02:23.435Z,81.20
2018-03-31T01:03:23.398Z,76.50
2018-03-31T01:04:23.382Z,74.60
2018-03-31T01:05:23.353Z,77.70
2018-03-31T01:06:23.324Z,68.60
2018-03-31T01:07:23.322Z,73.00
2018-03-31T01:08:23.328Z,70.20
2018-03-31T01:09:23.261Z,70.30
2018-03-31T01:10:23.233Z,75.40
2018-03-31T01:11:23.221Z,85.70
2018-03-31T01:12:23.179Z,69.50
2018-03-31T01:13:23.169Z,76.80
2018-03-31T01:14:23.266Z,76.80
2018-03-31T01:15:23.109Z,76.10
2018-03-31T01:16:23.115Z,76.50
2018-03-31T01:17:23.059Z,90.00
2018-03-31T01:18:23.035Z,104.50
2018-03-31T01:19:23.014Z,94.90
2018-03-31T01:20:22.991Z,94.70
2018-03-31T01:21:22.986Z,98.70
2018-03-31T01:22:22.941Z,96.10
2018-03-31T01:23:22.915Z,78.00
2018-03-31T01:24:22.979Z,75.40
2018-03-31T01:25:22.880Z,77.90
2018-03-31T01:26:22.840Z,90.80
2018-03-31T01:27:22.817Z,96.30
2018-03-31T01:28:22.806Z,92.50
2018-03-31T01:29:22.765Z,98.50
2018-03-31T01:30:22.743Z,89.00
2018-03-31T01:31:22.731Z,96.20
2018-03-31T01:32:22.770Z,88.80
2018-03-31T01:33:22.669Z,103.60
2018-03-31T01:34:22.685Z,109.90
2018-03-31T01:35:22.653Z,103.50
2018-03-31T01:36:22.614Z,102.50
2018-03-31T01:37:22.595Z,117.00
2018-03-31T01:38:22.629Z,107.00
2018-03-31T01:39:22.519Z,104.60
2018-03-31T01:40:22.497Z,96.50
2018-03-31T01:41:22.471Z,89.50
2018-03-31T01:42:22.450Z,96.40
2018-03-31T01:43:22.430Z,94.10
2018-03-31T01:44:22.404Z,90.40
2018-03-31T01:45:22.380Z,105.30
2018-03-31T01:46:22.346Z,89.50
2018-03-31T01:47:22.326Z,93.00
2018-03-31T01:48:22.302Z,93.40
2018-03-31T01:49:22.282Z,97.80
2018-03-31T01:50:22.252Z,98.90
2018-03-31T01:51:22.236Z,102.40
2018-03-31T01:52:22.219Z,104.30
2018-03-31T01:53:22.186Z,108.00
2018-03-31T01:54:22.179Z,116.00
2018-03-31T01:55:22.122Z,112.10
2018-03-31T01:56:22.101Z,117.50
2018-03-31T01:57:22.100Z,120.10
2018-03-31T01:58:22.054Z,110.30
2018-03-31T01:59:22.021Z,118.80
2018-03-31T02:00:22.008Z,139.00
2018-03-31T02:01:22.050Z,120.90
2018-03-31T02:02:21.951Z,135.70
2018-03-31T02:03:21.931Z,120.80
2018-03-31T02:04:21.932Z,125.60
2018-03-31T02:05:21.876Z,128.20
2018-03-31T02:06:21.878Z,127.20
2018-03-31T02:07:21.821Z,119.30
2018-03-31T02:08:21.798Z,106.80
2018-03-31T02:09:21.781Z,131.50
2018-03-31T02:10:21.785Z,130.40
2018-03-31T02:11:21.725Z,115.60
2018-03-31T02:12:21.701Z,134.80
2018-03-31T02:13:21.695Z,129.30
2018-03-31T02:14:21.656Z,134.70
2018-03-31T02:15:21.624Z,125.00
2018-03-31T02:16:21.599Z,136.60
2018-03-31T02:17:21.608Z,120.90
2018-03-31T02:18:21.637Z,116.30
2018-03-31T02:19:21.530Z,122.20
2018-03-31T02:20:21.501Z,119.10
2018-03-31T02:21:21.476Z,121.00
2018-03-31T02:22:21.461Z,110.50
2018-03-31T02:23:21.425Z,107.40
2018-03-31T02:24:21.404Z,111.20
2018-03-31T02:25:21.370Z,114.70
2018-03-31T02:26:21.348Z,103.90
2018-03-31T02:27:21.319Z,106.50
2018-03-31T02:28:21.294Z,97.30
2018-03-31T02:29:21.272Z,93.70
2018-03-31T02:30:21.252Z,96.20
2018-03-31T02:31:21.224Z,99.10
2018-03-31T02:32:21.206Z,96.40
2018-03-31T02:33:21.168Z,96.30
2018-03-31T02:34:21.148Z,92.80
2018-03-31T02:35:21.128Z,97.80
2018-03-31T02:36:21.163Z,93.90
2018-03-31T02:37:21.074Z,101.30
2018-03-31T02:38:21.044Z,91.40
2018-03-31T02:39:21.031Z,92.80
2018-03-31T02:40:21.012Z,95.10
2018-03-31T02:41:20.967Z,103.90
2018-03-31T02:42:20.945Z,103.30
2018-03-31T02:43:20.922Z,103.60
2018-03-31T02:44:20.899Z,109.90
2018-03-31T02:45:20.923Z,101.40
2018-03-31T02:46:20.850Z,102.40
2018-03-31T02:47:20.838Z,99.00
2018-03-31T02:48:20.799Z,104.40
2018-03-31T02:49:20.809Z,107.40
2018-03-31T02:50:20.755Z,107.70
2018-03-31T02:51:20.733Z,98.80
2018-03-31T02:52:20.690Z,100.70
2018-03-31T02:53:20.670Z,107.60
2018-03-31T02:54:20.643Z,103.40
2018-03-31T02:55:20.617Z,97.30
2018-03-31T02:56:20.631Z,107.90
2018-03-31T02:57:20.604Z,113.20
2018-03-31T02:58:20.555Z,118.90
2018-03-31T02:59:20.522Z,109.10
2018-03-31T03:00:20.490Z,105.90
2018-03-31T03:01:20.482Z,108.20
2018-03-31T03:02:20.447Z,99.60
2018-03-31T03:03:20.425Z,99.70
2018-03-31T03:04:20.432Z,97.50
2018-03-31T03:05:20.369Z,99.50
2018-03-31T03:06:20.344Z,95.70
2018-03-31T03:07:20.347Z,92.20
2018-03-31T03:08:20.291Z,113.30
2018-03-31T03:09:20.267Z,100.60
2018-03-31T03:10:20.242Z,91.30
2018-03-31T03:11:20.219Z,98.00
2018-03-31T03:12:20.191Z,99.70
2018-03-31T03:13:20.167Z,107.40
2018-03-31T03:14:20.156Z,104.50
2018-03-31T03:15:20.136Z,114.80
2018-03-31T03:16:20.134Z,112.10
2018-03-31T03:17:20.069Z,124.50
2018-03-31T03:18:20.044Z,112.10
2018-03-31T03:19:20.033Z,114.10
2018-03-31T03:20:20.000Z,111.50
2018-03-31T03:21:19.979Z,115.60
2018-03-31T03:22:19.945Z,123.40
2018-03-31T03:23:19.917Z,110.90
2018-03-31T03:24:19.893Z,122.30
2018-03-31T03:25:19.919Z,109.30
2018-03-31T03:26:19.860Z,109.10
2018-03-31T03:27:19.839Z,118.50
2018-03-31T03:28:19.811Z,112.20
2018-03-31T03:29:19.793Z,100.80
2018-03-31T03:30:19.757Z,104.60
2018-03-31T03:31:19.734Z,110.60
2018-03-31T03:32:19.701Z,112.00
2018-03-31T03:33:19.681Z,107.80
2018-03-31T03:34:19.650Z,105.20
2018-03-31T03:35:19.624Z,105.70
2018-03-31T03:36:19.605Z,104.20
2018-03-31T03:37:19.578Z,105.90
2018-03-31T03:38:19.550Z,97.30
2018-03-31T03:39:19.528Z,114.00
2018-03-31T03:40:19.528Z,111.70
2018-03-31T03:41:19.478Z,111.50
2018-03-31T03:42:19.451Z,97.30
2018-03-31T03:43:19.430Z,124.90
2018-03-31T03:44:19.403Z,110.70
2018-03-31T03:45:19.379Z,112.60
2018-03-31T03:46:19.371Z,106.60
2018-03-31T03:47:19.333Z,98.60
2018-03-31T03:48:19.303Z,111.20
2018-03-31T03:49:19.309Z,99.30
2018-03-31T03:50:19.266Z,100.70
2018-03-31T03:51:19.241Z,99.50
2018-03-31T03:52:19.259Z,95.80
2018-03-31T03:53:19.220Z,101.30
2018-03-31T03:54:19.161Z,91.50
2018-03-31T03:55:19.143Z,93.30
2018-03-31T03:56:19.114Z,96.20
2018-03-31T03:57:19.092Z,92.70
2018-03-31T03:58:19.061Z,100.10
2018-03-31T03:59:19.033Z,89.00
2018-03-31T04:00:19.007Z,91.60
2018-03-31T04:01:19.007Z,94.80
2018-03-31T04:02:18.969Z,84.70
2018-03-31T04:03:18.936Z,81.00
2018-03-31T04:04:18.906Z,82.70
2018-03-31T04:05:19.009Z,85.80
2018-03-31T04:06:18.872Z,68.60
2018-03-31T04:07:18.842Z,67.80
2018-03-31T04:08:18.916Z,78.90
2018-03-31T04:09:18.788Z,74.90
2018-03-31T04:10:18.762Z,80.00
2018-03-31T04:11:18.743Z,76.40
2018-03-31T04:12:18.711Z,74.40
2018-03-31T04:13:18.708Z,83.00
2018-03-31T04:14:18.682Z,81.60
2018-03-31T04:15:18.639Z,75.00
2018-03-31T04:16:18.644Z,73.50
2018-03-31T04:17:18.591Z,73.90
2018-03-31T04:18:18.565Z,86.00
2018-03-31T04:19:18.532Z,69.20
2018-03-31T04:20:18.558Z,73.40
2018-03-31T04:21:18.517Z,69.20
2018-03-31T04:22:18.483Z,82.50
2018-03-31T04:23:18.477Z,64.30
2018-03-31T04:24:18.411Z,72.80
2018-03-31T04:25:18.384Z,88.30
2018-03-31T04:26:18.359Z,83.80
2018-03-31T04:27:18.342Z,96.00
2018-03-31T04:28:18.311Z,87.20
2018-03-31T04:29:18.289Z,98.10
2018-03-31T04:30:18.260Z,90.10
2018-03-31T04:31:18.287Z,90.60
2018-03-31T04:32:18.213Z,96.00
2018-03-31T04:33:18.205Z,105.60
2018-03-31T04:34:18.161Z,102.20
2018-03-31T04:35:18.193Z,109.10
2018-03-31T04:36:18.123Z,99.10
2018-03-31T04:37:18.088Z,112.30
2018-03-31T04:38:18.068Z,105.90
2018-03-31T04:39:18.040Z,105.60
2018-03-31T04:40:18.023Z,108.60
2018-03-31T04:41:18.099Z,115.90
2018-03-31T04:42:17.969Z,118.10
2018-03-31T04:43:17.936Z,110.10
2018-03-31T04:44:17.906Z,119.10
2018-03-31T04:45:17.886Z,105.20
2018-03-31T04:46:17.861Z,127.20
2018-03-31T04:47:17.841Z,107.50
2018-03-31T04:48:17.809Z,122.60
2018-03-31T04:49:17.784Z,109.50
2018-03-31T04:50:17.794Z,120.50
2018-03-31T04:51:17.742Z,128.80
2018-03-31T04:52:17.712Z,117.40
2018-03-31T04:53:17.708Z,125.40
2018-03-31T04:54:17.655Z,127.80
2018-03-31T04:55:17.645Z,103.30
2018-03-31T04:56:17.627Z,124.90
2018-03-31T04:57:17.657Z,118.60
2018-03-31T04:58:17.554Z,129.40
2018-03-31T04:59:17.554Z,141.60
2018-03-31T05:00:17.503Z,124.40
2018-03-31T05:01:17.478Z,133.80
2018-03-31T05:02:17.509Z,136.40
2018-03-31T05:03:17.430Z,134.30
2018-03-31T05:04:17.422Z,128.10
2018-03-31T05:05:17.383Z,129.30
2018-03-31T05:06:17.358Z,137.90
2018-03-31T05:07:17.436Z,152.70
2018-03-31T05:08:17.313Z,125.40
2018-03-31T05:09:17.275Z,136.30
2018-03-31T05:10:17.259Z,141.40
2018-03-31T05:11:17.226Z,145.20
2018-03-31T05:12:17.219Z,137.40
2018-03-31T05:13:17.174Z,139.50
2018-03-31T05:14:17.164Z,140.90
2018-03-31T05:15:17.121Z,152.60
2018-03-31T05:16:17.140Z,148.30
2018-03-31T05:17:17.073Z,151.20
2018-03-31T05:18:17.074Z,140.10
2018-03-31T05:19:17.022Z,152.70
2018-03-31T05:20:16.999Z,145.10
2018-03-31T05:21:17.000Z,156.30
2018-03-31T05:22:16.943Z,140.00
2018-03-31T05:23:16.919Z,145.40
2018-03-31T05:24:16.891Z,152.80
2018-03-31T05:25:16.867Z,151.50
2018-03-31T05:26:16.847Z,154.40
2018-03-31T05:27:16.870Z,143.10
2018-03-31T05:28:16.791Z,164.00
2018-03-31T05:29:16.775Z,168.30
2018-03-31T05:30:16.752Z,142.30
2018-03-31T05:31:16.713Z,152.60
2018-03-31T05:32:16.759Z,154.30
2018-03-31T05:33:16.672Z,176.40
2018-03-31T05:34:16.642Z,146.60
2018-03-31T05:35:16.673Z,147.00
2018-03-31T05:36:16.595Z,147.70
2018-03-31T05:37:16.598Z,146.30
2018-03-31T05:38:16.545Z,132.80
2018-03-31T05:39:16.510Z,158.00
2018-03-31T05:40:16.485Z,138.00
2018-03-31T05:41:16.464Z,138.10
2018-03-31T05:42:16.444Z,140.90
2018-03-31T05:43:16.413Z,151.50
2018-03-31T05:44:16.389Z,146.30
2018-03-31T05:45:16.398Z,147.40
2018-03-31T05:46:16.359Z,142.80
2018-03-31T05:47:16.313Z,146.70
2018-03-31T05:48:16.283Z,126.30
2018-03-31T05:49:16.256Z,136.20
2018-03-31T05:50:16.235Z,125.30
2018-03-31T05:51:16.257Z,133.80
2018-03-31T05:52:16.182Z,170.20
2018-03-31T05:53:16.153Z,137.00
2018-03-31T05:54:16.370Z,117.90
2018-03-31T05:55:16.109Z,111.80
2018-03-31T05:56:16.083Z,117.90
2018-03-31T05:57:16.102Z,134.30
2018-03-31T05:58:16.055Z,134.60
2018-03-31T05:59:16.002Z,140.50
2018-03-31T06:00:15.980Z,123.70
2018-03-31T06:01:15.983Z,163.40
2018-03-31T06:02:15.936Z,154.60
2018-03-31T06:03:15.904Z,154.30
2018-03-31T06:04:15.880Z,139.40
2018-03-31T06:05:15.853Z,123.40
2018-03-31T06:06:15.834Z,117.80
2018-03-31T06:07:15.826Z,113.50
2018-03-31T06:08:15.775Z,121.40
2018-03-31T06:09:15.775Z,122.20
2018-03-31T06:10:15.726Z,152.60
2018-03-31T06:11:15.706Z,140.20
2018-03-31T06:12:15.678Z,133.80
2018-03-31T06:13:15.676Z,125.90
2018-03-31T06:14:15.634Z,134.50
2018-03-31T06:15:15.603Z,119.20
2018-03-31T06:16:15.577Z,114.30
2018-03-31T06:17:15.565Z,153.20
2018-03-31T06:18:15.530Z,131.30
2018-03-31T06:19:15.506Z,132.90
2018-03-31T06:20:15.492Z,144.40
2018-03-31T06:21:15.451Z,139.60
2018-03-31T06:22:15.429Z,157.40
2018-03-31T06:23:15.402Z,120.10
2018-03-31T06:24:15.373Z,104.90
2018-03-31T06:25:15.363Z,117.70
2018-03-31T06:26:15.335Z,113.50
2018-03-31T06:27:15.347Z,109.60
2018-03-31T06:28:15.276Z,134.50
2018-03-31T06:29:15.272Z,118.40
2018-03-31T06:30:15.230Z,118.40
2018-03-31T06:31:15.206Z,121.30
2018-03-31T06:32:15.178Z,122.90
2018-03-31T06:33:15.178Z,117.80
2018-03-31T06:34:15.137Z,116.60
2018-03-31T06:35:15.120Z,105.90
2018-03-31T06:36:15.085Z,125.90
2018-03-31T06:37:15.065Z,123.00
2018-03-31T06:38:15.045Z,115.80
2018-03-31T06:39:15.077Z,109.40
2018-03-31T06:40:14.983Z,114.10
2018-03-31T06:41:14.964Z,119.90
2018-03-31T06:42:14.945Z,125.60
2018-03-31T06:43:14.948Z,118.00
2018-03-31T06:44:14.886Z,143.30
2018-03-31T06:45:14.865Z,112.70
2018-03-31T06:46:14.865Z,138.30
2018-03-31T06:47:14.811Z,158.40
2018-03-31T06:48:14.792Z,130.60
2018-03-31T06:49:14.806Z,96.10
2018-03-31T06:50:14.738Z,109.20
2018-03-31T06:51:14.725Z,117.40
2018-03-31T06:52:14.691Z,97.20
2018-03-31T06:53:14.666Z,86.30
2018-03-31T06:54:14.653Z,84.10
2018-03-31T06:55:14.619Z,98.50
2018-03-31T06:56:14.622Z,110.00
2018-03-31T06:57:14.618Z,109.10
2018-03-31T06:58:14.545Z,92.50
2018-03-31T06:59:14.523Z,112.40
2018-03-31T07:00:14.497Z,104.70
2018-03-31T07:01:14.479Z,110.20
2018-03-31T07:02:14.484Z,107.40
2018-03-31T07:03:14.452Z,101.30
2018-03-31T07:04:14.405Z,104.00
2018-03-31T07:05:14.379Z,105.70
2018-03-31T07:06:14.390Z,123.10
2018-03-31T07:07:14.328Z,119.40
2018-03-31T07:08:14.320Z,113.70
2018-03-31T07:09:14.282Z,113.90
2018-03-31T07:10:14.259Z,110.70
2018-03-31T07:11:14.239Z,102.40
2018-03-31T07:12:14.213Z,94.30
2018-03-31T07:13:14.235Z,96.90
2018-03-31T07:14:14.160Z,93.00
2018-03-31T07:15:14.171Z,100.70
2018-03-31T07:16:14.115Z,92.60
2018-03-31T07:17:14.090Z,88.40
2018-03-31T07:18:14.072Z,88.00
2018-03-31T07:19:14.050Z,87.10
2018-03-31T07:20:14.024Z,95.00
2018-03-31T07:21:13.997Z,87.30
2018-03-31T07:22:14.014Z,82.20
2018-03-31T07:23:13.950Z,100.10
2018-03-31T07:24:13.923Z,95.30
2018-03-31T07:25:13.920Z,91.70
2018-03-31T07:26:13.904Z,89.10
2018-03-31T07:27:13.868Z,80.00
2018-03-31T07:28:13.840Z,90.70
2018-03-31T07:29:13.833Z,85.80
2018-03-31T07:30:13.830Z,66.30
2018-03-31T07:31:13.768Z,72.30
2018-03-31T07:32:13.785Z,61.20
2018-03-31T07:33:13.734Z,57.00
2018-03-31T07:34:13.729Z,69.00
2018-03-31T07:35:13.667Z,69.30
2018-03-31T07:36:13.670Z,61.00
2018-03-31T07:37:13.648Z,61.80
2018-03-31T07:38:13.618Z,64.60
2018-03-31T07:39:13.593Z,62.50
2018-03-31T07:40:13.554Z,65.70
2018-03-31T07:41:13.523Z,50.90
2018-03-31T07:42:13.512Z,55.70
2018-03-31T07:43:13.512Z,56.70
2018-03-31T07:44:13.451Z,59.70
2018-03-31T07:45:13.436Z,62.30
2018-03-31T07:46:13.440Z,57.70
2018-03-31T07:47:13.395Z,57.20
2018-03-31T07:48:13.365Z,44.30
2018-03-31T07:49:13.335Z,45.90
2018-03-31T07:50:13.330Z,44.10
2018-03-31T07:51:13.287Z,54.80
2018-03-31T07:52:13.266Z,50.80
2018-03-31T07:53:13.292Z,53.40
2018-03-31T07:54:13.249Z,50.40
2018-03-31T07:55:13.197Z,52.40
2018-03-31T07:56:13.195Z,56.70
2018-03-31T07:57:13.164Z,49.50
2018-03-31T07:58:13.128Z,47.30
2018-03-31T07:59:13.101Z,40.90
2018-03-31T08:00:13.084Z,42.90
2018-03-31T08:01:13.054Z,44.30
2018-03-31T08:02:13.027Z,45.90
2018-03-31T08:03:13.008Z,43.80
2018-03-31T08:04:12.991Z,34.50
2018-03-31T08:05:12.964Z,37.20
2018-03-31T08:06:12.939Z,40.50
2018-03-31T08:07:12.932Z,36.80
2018-03-31T08:08:12.895Z,39.50
2018-03-31T08:09:12.874Z,37.80
2018-03-31T08:10:12.871Z,36.70
2018-03-31T08:11:12.886Z,29.10
2018-03-31T08:12:12.800Z,20.50
2018-03-31T08:13:12.781Z,21.40
2018-03-31T08:14:12.764Z,25.30
2018-03-31T08:15:12.737Z,23.80
2018-03-31T08:16:12.715Z,27.60
2018-03-31T08:17:12.698Z,20.90
2018-03-31T08:18:12.678Z,22.50
2018-03-31T08:19:12.646Z,24.20
2018-03-31T08:20:12.626Z,25.30
2018-03-31T08:21:12.597Z,24.20
2018-03-31T08:22:12.579Z,22.90
2018-03-31T08:23:12.553Z,22.70
2018-03-31T08:24:12.560Z,23.90
2018-03-31T08:25:12.513Z,24.60
2018-03-31T08:26:12.483Z,22.10
2018-03-31T08:27:12.461Z,25.50
2018-03-31T08:28:12.453Z,22.60
2018-03-31T08:29:12.472Z,21.30
2018-03-31T08:30:12.395Z,23.00
2018-03-31T08:31:12.390Z,22.30
2018-03-31T08:32:12.378Z,22.80
2018-03-31T08:33:12.331Z,27.20
2018-03-31T08:34:12.309Z,26.20
2018-03-31T08:35:12.317Z,22.00
2018-03-31T08:36:12.277Z,22.40
2018-03-31T08:37:12.239Z,21.50
2018-03-31T08:38:12.226Z,20.60
2018-03-31T08:39:12.230Z,18.90
2018-03-31T08:40:12.185Z,17.60
2018-03-31T08:41:12.162Z,18.70
2018-03-31T08:42:12.132Z,22.00
2018-03-31T08:43:12.125Z,19.50
2018-03-31T08:44:12.091Z,18.20
2018-03-31T08:45:12.092Z,18.00
2018-03-31T08:46:12.045Z,14.50
2018-03-31T08:47:12.077Z,18.10
2018-03-31T08:48:12.002Z,15.70
2018-03-31T08:49:12.002Z,14.10
2018-03-31T08:50:12.021Z,13.30
2018-03-31T08:51:11.938Z,13.60
2018-03-31T08:52:11.924Z,12.80
2018-03-31T08:53:11.893Z,14.00
2018-03-31T08:54:11.869Z,16.30
2018-03-31T08:55:11.845Z,15.30
2018-03-31T08:56:11.844Z,14.80
2018-03-31T08:57:11.811Z,16.80
2018-03-31T08:58:11.790Z,13.10
2018-03-31T08:59:11.810Z,13.00
2018-03-31T09:00:11.773Z,12.50
2018-03-31T09:01:11.728Z,12.70
2018-03-31T09:02:11.703Z,8.70
2018-03-31T09:03:11.687Z,8.50
2018-03-31T09:04:11.687Z,9.10
2018-03-31T09:05:11.651Z,8.70
2018-03-31T09:06:11.629Z,9.20
2018-03-31T09:07:11.622Z,9.10
2018-03-31T09:08:11.599Z,9.30
2018-03-31T09:09:11.630Z,9.40
2018-03-31T09:10:11.558Z,9.20
2018-03-31T09:11:11.546Z,10.50
2018-03-31T09:12:11.523Z,8.80
2018-03-31T09:13:11.503Z,8.40
2018-03-31T09:14:11.479Z,7.60
2018-03-31T09:15:11.472Z,7.50
2018-03-31T09:16:11.440Z,7.30
2018-03-31T09:17:11.432Z,8.60
2018-03-31T09:18:11.408Z,7.40
2018-03-31T09:19:11.398Z,8.60
2018-03-31T09:20:11.380Z,7.40
2018-03-31T09:21:11.363Z,8.20
2018-03-31T09:22:11.335Z,7.70
2018-03-31T09:23:11.316Z,8.90
2018-03-31T09:24:11.302Z,7.80
2018-03-31T09:25:11.281Z,7.40
2018-03-31T09:26:11.270Z,7.10
2018-03-31T09:27:11.249Z,6.10
2018-03-31T09:28:11.238Z,6.00
2018-03-31T09:29:11.218Z,5.70
2018-03-31T09:30:11.195Z,5.40
2018-03-31T09:31:11.183Z,5.60
2018-03-31T09:32:11.163Z,5.00
2018-03-31T09:33:11.159Z,4.10
2018-03-31T09:34:11.131Z,4.80
2018-03-31T09:35:11.112Z,4.90
2018-03-31T09:36:11.103Z,5.10
2018-03-31T09:37:11.091Z,4.20
2018-03-31T09:38:11.066Z,4.70
2018-03-31T09:39:11.053Z,5.10
2018-03-31T09:40:11.027Z,4.10
2018-03-31T09:41:11.011Z,5.90
2018-03-31T09:42:11.000Z,5.10
2018-03-31T09:43:10.987Z,5.60
2018-03-31T09:44:10.966Z,5.50
2018-03-31T09:45:10.961Z,5.30
2018-03-31T09:46:10.946Z,5.60
2018-03-31T09:47:10.916Z,5.20
2018-03-31T09:48:10.900Z,5.10
2018-03-31T09:49:10.889Z,4.80
2018-03-31T09:50:10.867Z,5.00
2018-03-31T09:51:10.854Z,5.20
2018-03-31T09:52:10.837Z,4.60
2018-03-31T09:53:10.830Z,4.80
2018-03-31T09:54:10.810Z,4.70
2018-03-31T09:55:10.811Z,4.90
2018-03-31T09:56:10.778Z,4.40
2018-03-31T09:57:10.753Z,4.00
2018-03-31T09:58:10.741Z,3.40
2018-03-31T09:59:10.727Z,3.80
2018-03-31T10:00:10.713Z,4.80
2018-03-31T10:01:10.697Z,4.40
2018-03-31T10:02:10.688Z,3.70
2018-03-31T10:03:10.671Z,3.70
2018-03-31T10:04:10.652Z,4.50
2018-03-31T10:05:10.636Z,4.10
2018-03-31T10:06:10.626Z,4.40
2018-03-31T10:07:10.602Z,4.00
2018-03-31T10:08:10.600Z,5.60
2018-03-31T10:09:10.579Z,5.00
2018-03-31T10:10:10.555Z,7.20
2018-03-31T10:11:10.546Z,4.80
2018-03-31T10:12:10.528Z,5.20
2018-03-31T10:13:10.525Z,5.30
2018-03-31T10:14:10.504Z,6.10
2018-03-31T10:15:10.496Z,5.10
2018-03-31T10:16:10.469Z,5.00
2018-03-31T10:17:10.456Z,5.10
2018-03-31T10:18:10.449Z,5.10
2018-03-31T10:19:10.430Z,5.30
2018-03-31T10:20:10.412Z,5.10
2018-03-31T10:21:10.414Z,5.00
2018-03-31T10:22:10.379Z,5.80
2018-03-31T10:23:10.379Z,5.40
2018-03-31T10:24:10.354Z,5.30
2018-03-31T10:25:10.367Z,6.00
2018-03-31T10:26:10.352Z,5.20
2018-03-31T10:27:10.313Z,6.10
2018-03-31T10:28:10.303Z,5.50
2018-03-31T10:29:10.320Z,6.10
2018-03-31T10:30:10.266Z,5.20
2018-03-31T10:31:10.260Z,4.80
2018-03-31T10:32:10.251Z,4.90
2018-03-31T10:33:10.243Z,4.10
2018-03-31T10:34:10.217Z,4.40
2018-03-31T10:35:10.219Z,4.40
2018-03-31T10:36:10.188Z,4.80
2018-03-31T10:37:10.187Z,5.00
2018-03-31T10:38:10.169Z,5.20
2018-03-31T10:39:10.150Z,4.90
2018-03-31T10:40:10.133Z,5.00
2018-03-31T10:41:10.123Z,5.30
2018-03-31T10:42:10.117Z,5.60
2018-03-31T10:43:10.086Z,5.60
2018-03-31T10:44:10.084Z,5.30
2018-03-31T10:45:10.061Z,6.30
2018-03-31T10:46:10.097Z,5.80
2018-03-31T10:47:10.030Z,6.20
2018-03-31T10:48:10.049Z,7.20
2018-03-31T10:49:09.998Z,4.90
2018-03-31T10:50:10.004Z,4.30
2018-03-31T10:51:09.979Z,4.20
2018-03-31T10:52:09.960Z,4.00
2018-03-31T10:53:09.949Z,5.50
2018-03-31T10:54:09.933Z,4.70
2018-03-31T10:55:09.929Z,4.50
2018-03-31T10:56:09.905Z,4.80
2018-03-31T10:57:09.885Z,4.20
2018-03-31T10:58:09.890Z,4.90
2018-03-31T10:59:09.862Z,4.70
2018-03-31T11:00:09.861Z,4.60
2018-03-31T11:01:09.836Z,5.30
2018-03-31T11:02:09.817Z,4.60
2018-03-31T11:03:09.802Z,4.80
2018-03-31T11:04:09.791Z,4.40
2018-03-31T11:05:09.781Z,6.00
2018-03-31T11:06:09.771Z,4.50
2018-03-31T11:07:09.758Z,6.10
2018-03-31T11:08:09.734Z,4.40
2018-03-31T11:09:09.720Z,4.30
2018-03-31T11:10:09.732Z,4.50
2018-03-31T11:11:09.700Z,5.60
2018-03-31T11:12:09.697Z,3.90
2018-03-31T11:13:09.669Z,4.70
2018-03-31T11:14:09.663Z,4.40
2018-03-31T11:15:09.649Z,4.30
2018-03-31T11:16:09.639Z,4.30
2018-03-31T11:17:09.627Z,5.10
2018-03-31T11:18:09.619Z,4.50
2018-03-31T11:19:09.599Z,5.10
2018-03-31T11:20:09.592Z,4.10
2018-03-31T11:21:09.578Z,3.80
2018-03-31T11:22:09.569Z,4.10
2018-03-31T11:23:09.572Z,4.60
2018-03-31T11:24:09.540Z,4.90
2018-03-31T11:25:09.531Z,4.60
2018-03-31T11:26:09.516Z,4.30
2018-03-31T11:27:09.504Z,4.20
2018-03-31T11:28:09.492Z,4.20
2018-03-31T11:29:09.492Z,4.50
2018-03-31T11:30:09.472Z,4.60
2018-03-31T11:31:09.463Z,4.80
2018-03-31T11:32:09.443Z,4.50
2018-03-31T11:33:09.480Z,5.40
2018-03-31T11:34:09.424Z,4.70
2018-03-31T11:35:09.408Z,4.70
2018-03-31T11:36:09.415Z,4.70
2018-03-31T11:37:09.396Z,4.90
2018-03-31T11:38:09.388Z,4.90
2018-03-31T11:39:09.361Z,5.00
2018-03-31T11:40:09.359Z,5.20
2018-03-31T11:41:09.334Z,4.50
2018-03-31T11:42:09.325Z,4.20
2018-03-31T11:43:09.307Z,4.80
2018-03-31T11:44:09.320Z,4.90
2018-03-31T11:45:09.292Z,4.80
2018-03-31T11:46:09.274Z,3.90
2018-03-31T11:47:09.262Z,4.70
2018-03-31T11:48:09.283Z,4.00
2018-03-31T11:49:09.234Z,3.90
2018-03-31T11:50:09.232Z,4.80
2018-03-31T11:51:09.215Z,4.80
2018-03-31T11:52:09.197Z,4.10
2018-03-31T11:53:09.191Z,5.50
2018-03-31T11:54:09.193Z,5.20
2018-03-31T11:55:09.164Z,5.10
2018-03-31T11:56:09.148Z,4.50
2018-03-31T11:57:09.150Z,5.10
2018-03-31T11:58:09.125Z,4.30
2018-03-31T11:59:09.115Z,5.60
2018-03-31T12:00:09.123Z,4.90
2018-03-31T12:01:09.092Z,4.60
2018-03-31T12:02:09.086Z,5.40
2018-03-31T12:03:09.069Z,3.80
2018-03-31T12:04:09.069Z,3.80
2018-03-31T12:05:09.090Z,3.60
2018-03-31T12:06:09.043Z,4.30
2018-03-31T12:07:09.032Z,4.50
2018-03-31T12:08:09.016Z,3.50
2018-03-31T12:09:09.004Z,4.00
2018-03-31T12:10:08.996Z,4.00
2018-03-31T12:11:08.990Z,5.20
2018-03-31T12:12:08.981Z,5.00
2018-03-31T12:13:08.970Z,4.80
2018-03-31T12:14:08.956Z,4.30
2018-03-31T12:15:08.948Z,4.30
2018-03-31T12:16:08.934Z,4.50
2018-03-31T12:17:08.941Z,4.40
2018-03-31T12:18:08.926Z,4.50
2018-03-31T12:19:08.939Z,4.10
2018-03-31T12:20:08.897Z,4.00
2018-03-31T12:21:08.893Z,4.00
2018-03-31T12:22:08.892Z,4.50
2018-03-31T12:23:08.899Z,3.50
2018-03-31T12:24:08.882Z,3.70
2018-03-31T12:25:08.855Z,4.50
2018-03-31T12:26:08.852Z,3.80
2018-03-31T12:27:08.848Z,4.00
2018-03-31T12:28:08.828Z,4.20
2018-03-31T12:29:08.826Z,4.30
2018-03-31T12:30:08.822Z,4.90
2018-03-31T12:31:08.814Z,5.00
2018-03-31T12:32:08.796Z,3.80
2018-03-31T12:33:08.784Z,4.70
2018-03-31T12:34:08.788Z,4.30
2018-03-31T12:35:08.782Z,4.20
2018-03-31T12:36:08.765Z,4.10
2018-03-31T12:37:08.760Z,4.20
2018-03-31T12:38:08.746Z,4.70
2018-03-31T12:39:08.742Z,6.60
2018-03-31T12:40:08.733Z,4.60
2018-03-31T12:41:08.727Z,4.80
2018-03-31T12:42:08.711Z,5.30
2018-03-31T12:43:08.706Z,5.10
2018-03-31T12:44:08.705Z,4.60
2018-03-31T12:45:08.708Z,11.60
2018-03-31T12:46:08.673Z,4.50
2018-03-31T12:47:08.665Z,5.10
2018-03-31T12:48:08.656Z,4.30
2018-03-31T12:49:08.649Z,4.20
2018-03-31T12:50:08.667Z,4.60
2018-03-31T12:51:08.654Z,5.20